Time;durP1;ratioP1;P1;durP2;ratioP2;P2;SDS_P1;SDS_P2;PMS_P1;PMS_P2;Temp;Humidity;BMP_temperature;BMP_pressure;BME280_temperature;BME280_humidity;BME280_pressure;Samples;Min_cycle;Max_cycle;Signal;HPM_P1;HPM_P2
2021/03/30 00:00:52;;;;;;;58.52;36.40;;;;;;;8.98;86.31;101512.59;1661451;85;25538;-53
2021/03/30 00:03:18;;;;;;;55.98;34.50;;;;;;;8.98;86.37;101509.89;1661374;85;28106;-53
2021/03/30 00:05:45;;;;;;;54.50;35.00;;;;;;;9.00;86.58;101508.27;1661085;85;25488;-54
2021/03/30 00:08:14;;;;;;;56.00;35.52;;;;;;;9.02;86.39;101510.70;1661365;85;25470;-51
2021/03/30 00:10:43;;;;;;;56.30;35.50;;;;;;;9.02;86.49;101506.11;1661462;86;25479;-55
2021/03/30 00:13:10;;;;;;;52.95;34.83;;;;;;;9.02;86.42;101506.11;1661301;85;25454;-54
2021/03/30 00:15:37;;;;;;;55.73;34.85;;;;;;;9.02;86.37;101499.91;1661409;86;25722;-55
2021/03/30 00:18:04;;;;;;;58.73;35.65;;;;;;;9.03;86.37;101501.00;1661226;86;25465;-52
2021/03/30 00:20:31;;;;;;;57.27;34.80;;;;;;;9.03;86.44;101501.00;1661067;85;25312;-52
2021/03/30 00:22:58;;;;;;;52.33;35.15;;;;;;;9.03;86.37;101497.50;1661319;85;25378;-51
2021/03/30 00:25:24;;;;;;;51.95;33.55;;;;;;;9.04;86.39;101501.28;1661389;85;25273;-54
2021/03/30 00:27:51;;;;;;;51.18;35.23;;;;;;;9.05;86.39;101496.68;1661144;85;25717;-52
2021/03/30 00:30:19;;;;;;;59.38;34.70;;;;;;;9.06;86.49;101502.33;1661291;85;25289;-54
2021/03/30 00:32:46;;;;;;;54.47;36.37;;;;;;;9.04;86.35;101496.40;1661611;86;25477;-51
2021/03/30 00:35:13;;;;;;;57.10;35.90;;;;;;;9.04;86.32;101499.93;1661061;85;25389;-54
2021/03/30 00:37:39;;;;;;;60.33;35.17;;;;;;;9.04;86.35;101504.50;1661340;85;25331;-55
2021/03/30 00:40:09;;;;;;;55.98;34.73;;;;;;;9.04;86.44;101505.33;1661312;85;25740;-52
2021/03/30 00:42:37;;;;;;;57.55;34.53;;;;;;;9.03;86.38;101506.39;1661022;86;25599;-55
2021/03/30 00:45:07;;;;;;;55.40;34.60;;;;;;;9.03;86.51;101502.34;1661456;85;25353;-54
2021/03/30 00:47:36;;;;;;;56.08;35.20;;;;;;;9.03;86.46;101502.34;1661450;85;25467;-52
2021/03/30 00:50:06;;;;;;;54.75;35.92;;;;;;;9.02;86.45;101503.41;1660899;86;25569;-52
2021/03/30 00:52:32;;;;;;;58.35;35.68;;;;;;;9.02;86.55;101498.02;1660212;85;26008;-55
2021/03/30 00:54:59;;;;;;;57.13;35.52;;;;;;;9.01;86.73;101497.77;1659504;85;25728;-55
2021/03/30 00:57:25;;;;;;;51.05;34.35;;;;;;;9.00;86.65;101496.68;1659938;85;25753;-55
2021/03/30 00:59:53;;;;;;;51.40;34.08;;;;;;;9.00;86.58;101492.08;1659915;85;25636;-55
2021/03/30 01:02:19;;;;;;;54.55;34.70;;;;;;;8.98;86.65;101499.64;1660846;85;25423;-55
2021/03/30 01:04:45;;;;;;;53.68;34.13;;;;;;;8.98;86.72;101497.75;1660700;85;25782;-55
2021/03/30 01:07:12;;;;;;;55.67;35.03;;;;;;;8.97;86.76;101500.19;1660868;86;25684;-52
2021/03/30 01:10:05;;;;;;;48.65;33.42;;;;;;;8.98;86.70;101499.09;1672544;85;25362;-55
2021/03/30 01:12:46;;;;;;;51.63;33.23;;;;;;;8.98;86.69;101502.34;1661455;85;25353;-55
2021/03/30 01:15:54;;;;;;;57.15;35.15;;;;;;;9.02;86.84;101497.21;1583301;89;25366;-54
2021/03/30 01:18:39;;;;;;;54.65;33.75;;;;;;;9.00;86.89;101496.12;1582769;90;25963;-52
2021/03/30 01:21:27;;;;;;;53.35;34.50;;;;;;;9.00;86.89;101497.48;1582056;89;25474;-55
2021/03/30 01:24:26;;;;;;;58.08;35.20;;;;;;;9.00;86.91;101500.73;1581084;90;25331;-52
2021/03/30 01:27:06;;;;;;;53.75;35.43;;;;;;;9.06;86.90;101495.58;1849547;76;34516;-53
2021/03/30 01:29:47;;;;;;;53.42;35.10;;;;;;;9.00;86.88;101490.73;1819644;78;25228;-50
2021/03/30 01:32:33;;;;;;;56.25;36.08;;;;;;;8.98;86.96;101484.25;1819679;78;27165;-54
2021/03/30 01:35:05;;;;;;;53.73;33.60;;;;;;;8.98;86.92;101488.30;1819596;78;25477;-53
2021/03/30 01:37:42;;;;;;;53.02;34.20;;;;;;;8.96;87.10;101487.77;1819654;78;25445;-54
2021/03/30 01:40:14;;;;;;;55.35;35.73;;;;;;;8.98;87.04;101495.59;1819591;78;25401;-56
2021/03/30 01:42:42;;;;;;;50.75;33.90;;;;;;;8.98;87.18;101488.84;1817671;78;25249;-55
2021/03/30 01:45:10;;;;;;;52.25;34.10;;;;;;;8.97;87.08;101484.52;1787953;78;26874;-52
2021/03/30 01:47:39;;;;;;;54.70;34.30;;;;;;;8.96;87.19;101482.37;1819520;78;25453;-55
2021/03/30 01:50:07;;;;;;;53.00;33.40;;;;;;;8.96;87.38;101489.11;1819591;78;25260;-55
2021/03/30 01:52:35;;;;;;;61.68;34.25;;;;;;;8.93;87.31;101476.16;1819468;78;25470;-54
2021/03/30 01:55:03;;;;;;;51.73;33.98;;;;;;;8.93;87.38;101477.50;1819723;78;25484;-54
2021/03/30 01:57:31;;;;;;;55.43;34.53;;;;;;;8.93;87.33;101483.45;1819609;78;25732;-54
2021/03/30 02:00:00;;;;;;;52.23;33.13;;;;;;;8.93;87.33;101480.75;1819486;78;25795;-55
2021/03/30 02:02:28;;;;;;;52.53;34.38;;;;;;;8.93;87.64;101468.61;1819736;78;25484;-55
2021/03/30 02:04:55;;;;;;;51.35;32.63;;;;;;;8.93;87.43;101468.61;1819532;78;25232;-52
2021/03/30 02:07:24;;;;;;;53.73;32.05;;;;;;;8.92;87.48;101472.38;1819622;78;25445;-51
2021/03/30 02:09:56;;;;;;;58.30;35.70;;;;;;;8.92;87.47;101466.45;1819814;78;25695;-52
2021/03/30 02:12:29;;;;;;;51.20;32.13;;;;;;;8.91;87.55;101466.17;1788158;78;25312;-53
2021/03/30 02:14:50;;;;;;;50.75;32.85;;;;;;;8.91;87.46;101474.27;1818301;78;25770;-54
2021/03/30 02:17:46;;;;;;;50.50;33.30;;;;;;;8.92;87.49;101473.20;1819649;78;25339;-55
2021/03/30 02:20:36;;;;;;;51.63;33.70;;;;;;;8.93;87.45;101476.70;1819482;78;25464;-55
2021/03/30 02:23:16;;;;;;;51.65;33.20;;;;;;;8.93;87.51;101481.55;1819583;78;25711;-55
2021/03/30 02:25:47;;;;;;;52.88;34.20;;;;;;;8.93;87.48;101479.41;1822573;78;25516;-56
2021/03/30 02:28:18;;;;;;;53.60;32.38;;;;;;;8.94;87.50;101483.19;1828860;78;25453;-52
2021/03/30 02:30:47;;;;;;;60.03;34.58;;;;;;;8.95;87.46;101487.48;1828819;78;25265;-52
2021/03/30 02:33:22;;;;;;;54.13;33.43;;;;;;;8.96;87.57;101487.77;1829104;78;25448;-51
2021/03/30 02:35:51;;;;;;;54.63;33.92;;;;;;;8.96;87.46;101485.06;1828823;78;25746;-55
2021/03/30 02:38:18;;;;;;;54.33;33.45;;;;;;;8.97;87.40;101485.87;1828238;78;25430;-52
2021/03/30 02:40:46;;;;;;;52.40;34.33;;;;;;;8.97;87.47;101481.30;1828227;78;25472;-52
2021/03/30 02:43:15;;;;;;;49.08;33.60;;;;;;;8.97;87.38;101484.00;1828193;78;25480;-53
2021/03/30 02:45:42;;;;;;;54.38;35.13;;;;;;;8.98;87.34;101485.60;1800778;78;25403;-53
2021/03/30 02:48:10;;;;;;;56.33;34.55;;;;;;;8.98;87.47;101486.15;1828238;78;25797;-55
2021/03/30 02:50:39;;;;;;;53.80;34.05;;;;;;;8.99;87.40;101483.73;1828225;78;25582;-56
2021/03/30 02:53:05;;;;;;;51.70;34.20;;;;;;;9.00;87.33;101477.79;1828228;78;25244;-52
2021/03/30 02:55:34;;;;;;;56.65;35.10;;;;;;;9.02;87.36;101473.73;1828161;78;25358;-56
2021/03/30 02:58:06;;;;;;;55.63;34.43;;;;;;;9.02;87.28;101476.42;1828268;78;25257;-51
2021/03/30 03:00:33;;;;;;;47.98;33.53;;;;;;;9.03;87.22;101484.00;1828260;78;25686;-53
2021/03/30 03:03:03;;;;;;;50.75;33.95;;;;;;;9.03;87.25;101479.95;1828211;78;25513;-55
2021/03/30 03:05:30;;;;;;;57.78;34.92;;;;;;;9.02;87.26;101479.12;1828210;78;25446;-52
2021/03/30 03:07:58;;;;;;;52.65;33.50;;;;;;;9.02;87.29;101487.22;1828177;78;25323;-56
2021/03/30 03:10:24;;;;;;;52.98;33.53;;;;;;;9.01;87.20;101482.92;1800484;78;25086;-53
2021/03/30 03:12:53;;;;;;;56.73;35.23;;;;;;;9.01;87.22;101481.57;1828302;78;25795;-53
2021/03/30 03:15:22;;;;;;;50.88;33.90;;;;;;;9.01;87.33;101485.62;1828214;78;29825;-56
2021/03/30 03:17:50;;;;;;;48.83;33.83;;;;;;;9.00;87.37;101479.14;1800651;78;25338;-55
2021/03/30 03:20:18;;;;;;;51.65;33.63;;;;;;;8.98;87.27;101478.05;1828253;78;25293;-55
2021/03/30 03:22:45;;;;;;;52.90;34.25;;;;;;;8.97;87.28;101477.25;1800378;78;25520;-56
2021/03/30 03:25:14;;;;;;;56.65;33.65;;;;;;;8.97;87.35;101478.60;1828129;78;25685;-54
2021/03/30 03:27:41;;;;;;;55.08;34.20;;;;;;;8.97;87.38;101482.66;1828252;78;25498;-52
2021/03/30 03:30:10;;;;;;;58.60;36.55;;;;;;;8.98;87.34;101478.05;1828210;78;25057;-53
2021/03/30 03:32:40;;;;;;;55.38;35.20;;;;;;;8.97;87.29;101473.20;1828175;78;25397;-53
2021/03/30 03:35:11;;;;;;;58.90;36.10;;;;;;;8.97;87.35;101474.55;1828438;78;32628;-55
2021/03/30 03:37:46;;;;;;;55.45;35.43;;;;;;;8.96;87.41;101473.47;1827330;78;26738;-55
2021/03/30 03:40:16;;;;;;;54.25;34.85;;;;;;;8.95;87.40;101472.64;1828108;78;25296;-54
2021/03/30 03:42:42;;;;;;;49.05;34.15;;;;;;;8.95;87.34;101471.29;1828015;78;25496;-56
2021/03/30 03:45:11;;;;;;;53.58;34.33;;;;;;;8.93;87.45;101476.16;1828118;78;25569;-56
2021/03/30 03:47:38;;;;;;;57.10;34.43;;;;;;;8.94;87.61;101471.59;1828471;78;25267;-55
2021/03/30 03:50:07;;;;;;;50.90;33.88;;;;;;;8.93;87.49;101470.76;1828125;78;25752;-55
2021/03/30 03:52:47;;;;;;;58.85;36.03;;;;;;;8.92;87.62;101464.27;1828001;78;25514;-54
2021/03/30 03:55:16;;;;;;;56.28;36.33;;;;;;;8.91;87.66;101467.52;1828185;78;25335;-54
2021/03/30 03:57:52;;;;;;;56.68;37.05;;;;;;;8.91;87.65;101462.67;1828255;78;25368;-55
2021/03/30 04:00:22;;;;;;;53.15;34.65;;;;;;;8.91;87.68;101462.67;1828232;78;25527;-55
2021/03/30 04:02:53;;;;;;;55.92;36.20;;;;;;;8.89;87.68;101465.64;1828315;78;29645;-55
2021/03/30 04:05:25;;;;;;;54.88;35.05;;;;;;;8.90;87.75;101469.14;1828035;78;25295;-55
2021/03/30 04:08:02;;;;;;;54.13;34.48;;;;;;;8.91;87.76;101472.92;1827979;78;25461;-53
2021/03/30 04:10:31;;;;;;;55.52;36.48;;;;;;;8.91;87.85;101468.08;1827941;78;25443;-53
2021/03/30 04:12:59;;;;;;;56.25;36.30;;;;;;;8.90;87.88;101468.59;1828320;78;25461;-55
2021/03/30 04:15:27;;;;;;;55.25;34.85;;;;;;;8.91;87.88;101478.31;1800376;78;25788;-54
2021/03/30 04:17:55;;;;;;;53.63;35.28;;;;;;;8.92;87.95;101479.95;1800270;78;25773;-54
2021/03/30 04:20:22;;;;;;;56.33;35.58;;;;;;;8.93;87.90;101478.85;1828230;78;25275;-53
2021/03/30 04:22:58;;;;;;;53.52;33.65;;;;;;;8.96;87.94;101479.67;1828205;78;25501;-51
2021/03/30 04:25:27;;;;;;;53.05;34.53;;;;;;;8.96;87.98;101479.67;1828123;78;25457;-55
2021/03/30 04:27:55;;;;;;;56.08;35.73;;;;;;;8.97;87.92;101485.87;1825266;78;26520;-55
2021/03/30 04:30:25;;;;;;;57.95;35.23;;;;;;;9.00;88.00;101487.23;1825256;78;25252;-55
2021/03/30 04:32:52;;;;;;;58.17;35.25;;;;;;;9.01;87.99;101492.88;1825267;78;25485;-54
2021/03/30 04:35:18;;;;;;;56.63;34.55;;;;;;;9.01;87.95;101488.84;1825223;78;25488;-55
2021/03/30 04:37:45;;;;;;;56.42;35.78;;;;;;;9.01;87.98;101485.62;1825288;78;25321;-50
2021/03/30 04:40:13;;;;;;;60.90;36.83;;;;;;;9.02;87.99;101487.22;1825204;78;25742;-50
2021/03/30 04:42:41;;;;;;;55.15;34.65;;;;;;;9.05;88.00;101489.94;1825243;78;25630;-53
2021/03/30 04:45:10;;;;;;;57.88;34.23;;;;;;;9.06;88.00;101486.97;1825236;78;25503;-53
2021/03/30 04:47:37;;;;;;;55.90;33.75;;;;;;;9.10;87.99;101489.94;1825243;78;25295;-54
2021/03/30 04:50:06;;;;;;;52.60;33.80;;;;;;;9.11;88.00;101485.63;1825236;78;25467;-53
2021/03/30 04:52:32;;;;;;;57.15;33.35;;;;;;;9.12;88.00;101485.08;1825383;78;25693;-55
2021/03/30 04:54:59;;;;;;;48.28;32.30;;;;;;;9.13;88.04;101486.70;1825246;78;25692;-54
2021/03/30 04:57:25;;;;;;;51.85;34.58;;;;;;;9.13;88.08;101488.05;1825291;78;25282;-51
2021/03/30 04:59:51;;;;;;;52.62;33.08;;;;;;;9.16;88.22;101486.17;1825212;78;25434;-50
2021/03/30 05:02:18;;;;;;;56.33;33.30;;;;;;;9.15;88.23;101487.23;1825303;78;25430;-51
2021/03/30 05:04:45;;;;;;;53.05;33.53;;;;;;;9.18;88.20;101492.62;1825217;78;25697;-53
2021/03/30 05:07:11;;;;;;;48.95;35.15;;;;;;;9.19;88.19;101493.70;1825072;78;25400;-50
2021/03/30 05:09:37;;;;;;;55.50;33.80;;;;;;;9.22;88.19;101494.52;1825227;78;25492;-52
2021/03/30 05:12:05;;;;;;;54.05;33.05;;;;;;;9.22;88.12;101490.47;1825176;78;25464;-55
2021/03/30 05:14:32;;;;;;;50.08;33.65;;;;;;;9.24;88.13;101496.41;1825270;78;25335;-55
2021/03/30 05:16:59;;;;;;;54.48;32.73;;;;;;;9.25;88.26;101493.98;1825220;78;28046;-53
2021/03/30 05:19:25;;;;;;;50.48;33.48;;;;;;;9.26;88.17;101505.59;1825097;78;25418;-54
2021/03/30 05:21:52;;;;;;;53.80;33.80;;;;;;;9.28;88.23;101504.25;1825301;78;25348;-54
2021/03/30 05:24:18;;;;;;;50.83;32.38;;;;;;;9.30;88.26;101502.08;1825176;78;25488;-53
2021/03/30 05:26:45;;;;;;;49.18;32.40;;;;;;;9.33;88.29;101504.25;1825100;78;25308;-50
2021/03/30 05:29:11;;;;;;;51.00;33.80;;;;;;;9.35;88.38;101502.62;1825179;78;25693;-50
2021/03/30 05:31:38;;;;;;;51.00;32.93;;;;;;;9.38;88.27;101503.96;1780322;76;25424;-55
2021/03/30 05:34:04;;;;;;;53.38;32.35;;;;;;;9.38;88.32;101500.74;1731719;82;25493;-50
2021/03/30 05:36:31;;;;;;;52.23;32.78;;;;;;;9.41;88.34;101504.23;1731825;82;25265;-51
2021/03/30 05:38:57;;;;;;;49.45;33.35;;;;;;;9.43;88.53;101504.80;1731919;81;25300;-50
2021/03/30 05:41:25;;;;;;;52.03;32.25;;;;;;;9.45;88.49;101508.02;1731935;82;26787;-52
2021/03/30 05:43:52;;;;;;;54.40;33.95;;;;;;;9.47;88.63;101504.50;1731892;82;25579;-54
2021/03/30 05:46:19;;;;;;;52.15;33.45;;;;;;;9.48;88.51;101507.48;1719203;83;25461;-51
2021/03/30 05:48:47;;;;;;;50.25;32.60;;;;;;;9.52;88.61;101508.55;1731909;82;25496;-55
2021/03/30 05:51:17;;;;;;;52.78;32.88;;;;;;;9.56;88.70;101505.31;1732061;82;25462;-55
2021/03/30 05:53:49;;;;;;;48.33;31.85;;;;;;;9.57;88.63;101505.05;1719230;83;25957;-50
2021/03/30 05:56:19;;;;;;;51.92;31.87;;;;;;;9.61;88.65;101506.66;1731850;82;25513;-53
2021/03/30 05:58:47;;;;;;;46.50;31.97;;;;;;;9.63;88.63;101501.78;1750815;82;25328;-54
2021/03/30 06:01:16;;;;;;;59.50;33.63;;;;;;;9.68;88.76;101500.42;1750668;81;25293;-52
2021/03/30 06:03:44;;;;;;;58.85;33.08;;;;;;;9.71;88.71;101501.23;1750578;82;25460;-52
2021/03/30 06:06:11;;;;;;;52.58;32.15;;;;;;;9.78;88.93;101503.66;1750739;82;25830;-52
2021/03/30 06:08:38;;;;;;;53.87;33.80;;;;;;;9.82;88.79;101510.11;1750547;82;25443;-53
2021/03/30 06:11:10;;;;;;;52.78;33.45;;;;;;;9.87;88.89;101508.75;1750651;82;25297;-54
2021/03/30 06:13:57;;;;;;;54.95;33.05;;;;;;;9.91;88.88;101517.95;1750548;80;25511;-52
2021/03/30 06:16:37;;;;;;;49.80;32.42;;;;;;;9.94;88.87;101511.16;1750890;82;25497;-52
2021/03/30 06:19:17;;;;;;;50.23;32.30;;;;;;;9.99;88.88;101516.56;1750394;82;25857;-51
2021/03/30 06:21:59;;;;;;;49.73;31.25;;;;;;;10.02;88.99;101515.46;1750703;82;25345;-55
2021/03/30 06:24:32;;;;;;;51.18;31.60;;;;;;;10.05;88.98;101516.82;1750876;82;25551;-54
2021/03/30 06:27:10;;;;;;;49.08;31.33;;;;;;;10.10;89.32;101520.31;1750810;82;25255;-55
2021/03/30 06:29:40;;;;;;;51.42;32.73;;;;;;;10.14;89.03;101516.51;1750917;82;25445;-55
2021/03/30 06:32:11;;;;;;;48.05;32.00;;;;;;;10.22;89.16;101523.25;1758482;79;25696;-52
2021/03/30 06:34:42;;;;;;;52.40;32.58;;;;;;;10.25;89.06;101525.41;1757813;80;25316;-54
2021/03/30 06:37:35;;;;;;;52.70;32.00;;;;;;;10.28;89.02;101524.83;1758353;81;25325;-55
2021/03/30 06:40:29;;;;;;;59.18;31.75;;;;;;;10.29;88.89;101529.97;1758412;81;26039;-53
2021/03/30 06:43:11;;;;;;;49.45;33.63;;;;;;;10.34;88.84;101531.08;1758264;81;25283;-53
2021/03/30 06:45:30;;;;;;;57.75;34.53;;;;;;;10.39;89.07;101532.41;1755876;81;26695;-51
2021/03/30 06:47:58;;;;;;;;;;;;;;;10.44;89.04;101533.19;1732926;81;25444;-55
2021/03/30 06:50:29;;;;;;;56.73;34.50;;;;;;;10.48;88.91;101525.33;1730467;81;25304;-52
2021/03/30 06:52:59;;;;;;;56.53;31.77;;;;;;;10.54;88.98;101530.98;1763513;79;25800;-54
2021/03/30 06:55:28;;;;;;;;;;;;;;;10.62;89.21;101538.53;1751439;80;25533;-52
2021/03/30 06:58:01;;;;;;;42.45;29.37;;;;;;;10.69;89.40;101542.25;1769792;79;25910;-55
2021/03/30 07:00:36;;;;;;;49.80;30.08;;;;;;;10.75;89.26;101535.73;1776727;80;25465;-54
2021/03/30 07:03:12;;;;;;;47.38;31.35;;;;;;;10.80;88.95;101537.05;1776855;80;25486;-55
2021/03/30 07:05:42;;;;;;;54.45;34.15;;;;;;;10.90;89.29;101542.16;1778126;80;26001;-52
2021/03/30 07:08:18;;;;;;;49.35;31.95;;;;;;;10.97;89.37;101540.74;1782285;80;26147;-52
2021/03/30 07:10:55;;;;;;;47.50;30.25;;;;;;;11.02;88.95;101542.61;1788086;80;25708;-57
2021/03/30 07:13:24;;;;;;;50.95;29.70;;;;;;;11.03;88.50;101538.80;1760118;81;25476;-54
2021/03/30 07:16:09;;;;;;;47.67;30.90;;;;;;;11.11;88.33;101542.27;1732455;82;25516;-55
2021/03/30 07:18:43;;;;;;;46.37;30.43;;;;;;;11.11;88.33;101542.27;1793746;80;25507;-55
2021/03/30 07:21:16;;;;;;;45.67;30.72;;;;;;;11.14;88.38;101539.00;1793806;79;25621;-57
2021/03/30 07:23:47;;;;;;;53.68;33.02;;;;;;;11.21;88.56;101544.90;1793795;79;25690;-55
2021/03/30 07:26:20;;;;;;;46.92;31.40;;;;;;;11.27;88.73;101548.92;1788282;78;25257;-57
2021/03/30 07:29:04;;;;;;;49.60;32.15;;;;;;;11.34;88.53;101545.34;1788151;80;25965;-57
2021/03/30 07:32:07;;;;;;;43.95;28.35;;;;;;;11.43;88.57;101546.92;1786603;79;25667;-56
2021/03/30 07:34:51;;;;;;;44.85;30.82;;;;;;;11.40;87.52;101553.14;1783161;80;25544;-55
2021/03/30 07:37:55;;;;;;;45.25;27.67;;;;;;;11.41;87.60;101549.91;1783202;80;27116;-57
2021/03/30 07:40:23;;;;;;;49.55;30.97;;;;;;;11.42;87.37;101556.92;1783050;80;25881;-56
2021/03/30 07:42:51;;;;;;;47.10;29.40;;;;;;;11.50;88.05;101552.81;1783138;80;25562;-57
2021/03/30 07:45:28;;;;;;;45.73;30.95;;;;;;;11.56;87.71;101546.23;1783036;80;25420;-57
2021/03/30 07:47:57;;;;;;;51.15;31.52;;;;;;;11.63;88.05;101545.91;1783113;80;25558;-56
2021/03/30 07:50:45;;;;;;;48.33;32.20;;;;;;;11.77;88.07;101546.31;1783407;80;25731;-57
2021/03/30 07:53:53;;;;;;;45.90;32.23;;;;;;;11.94;88.74;101547.26;1783030;80;25806;-56
2021/03/30 07:56:30;;;;;;;46.08;29.67;;;;;;;12.17;89.04;101559.75;1782984;80;25528;-56
2021/03/30 07:58:58;;;;;;;43.60;28.20;;;;;;;12.29;87.95;101547.97;1783238;80;26134;-56
2021/03/30 08:01:31;;;;;;;47.90;32.20;;;;;;;12.41;87.38;101558.94;1783539;80;25561;-56
2021/03/30 08:03:59;;;;;;;51.10;33.38;;;;;;;12.46;86.34;101553.45;1783163;80;25913;-56
2021/03/30 08:06:31;;;;;;;50.30;31.87;;;;;;;12.48;85.85;101560.21;1782999;79;25489;-52
2021/03/30 08:09:07;;;;;;;45.85;30.32;;;;;;;12.57;86.03;101556.30;1783154;80;25502;-56
2021/03/30 08:11:48;;;;;;;57.25;34.23;;;;;;;12.66;85.71;101551.82;1783138;80;25425;-54
2021/03/30 08:14:28;;;;;;;55.67;34.58;;;;;;;12.81;85.83;101556.24;1782995;80;25524;-56
2021/03/30 08:16:56;;;;;;;60.08;40.92;;;;;;;12.95;85.32;101559.03;1783143;80;25753;-55
2021/03/30 08:19:27;;;;;;;65.47;42.62;;;;;;;13.03;84.21;101564.36;1783017;80;25566;-57
2021/03/30 08:21:59;;;;;;;65.70;45.10;;;;;;;13.01;83.53;101559.22;1783223;80;25497;-56
2021/03/30 08:24:30;;;;;;;68.78;43.87;;;;;;;13.02;83.56;101562.17;1783108;80;25318;-52
2021/03/30 08:26:57;;;;;;;66.72;42.55;;;;;;;13.06;83.50;101566.49;1783164;80;25514;-57
2021/03/30 08:29:37;;;;;;;68.37;45.50;;;;;;;13.07;82.98;101572.16;1783133;80;25781;-55
2021/03/30 08:32:04;;;;;;;;;;;;;;;13.11;83.67;101571.84;1786313;80;25635;-55
2021/03/30 08:34:42;;;;;;;62.53;44.75;;;;;;;13.18;83.20;101574.20;1785185;80;25493;-56
2021/03/30 08:37:14;;;;;;;73.17;48.15;;;;;;;13.19;83.37;101579.87;1785321;80;25445;-57
2021/03/30 08:39:44;;;;;;;67.10;47.00;;;;;;;13.22;83.27;101577.36;1785414;80;25534;-57
2021/03/30 08:42:17;;;;;;;67.17;45.78;;;;;;;13.27;83.21;101577.28;1785397;80;26667;-56
2021/03/30 08:44:56;;;;;;;63.30;44.60;;;;;;;13.27;82.23;101579.20;1785385;80;25500;-56
2021/03/30 08:47:36;;;;;;;68.20;44.18;;;;;;;13.26;81.79;101578.94;1784810;80;25484;-57
2021/03/30 08:50:25;;;;;;;66.47;44.85;;;;;;;13.23;81.45;101576.27;1785170;80;25285;-57
2021/03/30 08:52:57;;;;;;;68.35;46.25;;;;;;;13.23;81.63;101576.27;1784923;80;25307;-55
2021/03/30 08:55:32;;;;;;;70.65;47.40;;;;;;;13.30;81.71;101578.62;1784907;80;25690;-56
2021/03/30 08:58:00;;;;;;;65.95;46.20;;;;;;;13.33;81.67;101581.31;1785059;80;25546;-57
2021/03/30 09:00:28;;;;;;;64.47;45.30;;;;;;;13.37;81.55;101569.56;1784928;80;25472;-56
2021/03/30 09:03:05;;;;;;;67.05;44.23;;;;;;;13.38;81.02;101574.44;1784874;80;25518;-58
2021/03/30 09:05:38;;;;;;;62.75;45.38;;;;;;;13.37;80.82;101579.07;1785166;80;25606;-55
2021/03/30 09:08:06;;;;;;;69.20;46.35;;;;;;;13.43;81.38;101573.83;1784037;80;25776;-57
2021/03/30 09:10:33;;;;;;;75.42;48.17;;;;;;;13.50;81.06;101573.45;1785296;80;25523;-54
2021/03/30 09:13:16;;;;;;;70.20;46.90;;;;;;;13.58;81.27;101571.38;1785383;79;25527;-57
2021/03/30 09:15:44;;;;;;;69.75;47.17;;;;;;;13.60;80.26;101569.72;1785262;80;25503;-56
2021/03/30 09:18:23;;;;;;;65.03;46.60;;;;;;;13.66;80.78;101571.26;1785365;80;25268;-57
2021/03/30 09:21:07;;;;;;;70.90;48.63;;;;;;;13.70;79.77;101565.47;1785414;80;25695;-57
2021/03/30 09:23:34;;;;;;;80.60;53.95;;;;;;;13.71;79.86;101565.73;1784797;80;25449;-56
2021/03/30 09:26:13;;;;;;;79.72;51.95;;;;;;;13.76;79.78;101573.80;1785475;80;26002;-59
2021/03/30 09:28:44;;;;;;;77.70;51.08;;;;;;;13.87;79.87;101574.98;1785340;80;25484;-58
2021/03/30 09:31:12;;;;;;;66.67;47.05;;;;;;;13.93;79.98;101569.14;1785112;80;25499;-58
2021/03/30 09:33:39;;;;;;;76.12;48.28;;;;;;;14.00;79.09;101566.83;1785422;80;26615;-59
2021/03/30 09:36:13;;;;;;;71.60;48.48;;;;;;;14.03;79.29;101566.80;1785337;80;25562;-57
2021/03/30 09:38:53;;;;;;;70.47;50.40;;;;;;;14.08;79.39;101571.31;1785050;80;25515;-57
2021/03/30 09:41:41;;;;;;;78.83;53.63;;;;;;;14.05;78.32;101577.38;1784900;80;25496;-59
2021/03/30 09:44:09;;;;;;;76.87;50.33;;;;;;;13.97;78.17;101576.15;1785142;80;25513;-57
2021/03/30 09:46:37;;;;;;;83.45;52.17;;;;;;;13.87;77.93;101566.81;1785401;80;25912;-58
2021/03/30 09:49:07;;;;;;;71.47;46.02;;;;;;;13.86;78.42;101574.71;1785603;80;25445;-59
2021/03/30 09:51:33;;;;;;;58.08;38.90;;;;;;;13.84;78.28;101572.28;1785223;80;25514;-57
2021/03/30 09:53:59;;;;;;;53.73;36.45;;;;;;;13.81;78.39;101573.71;1785473;80;25546;-58
2021/03/30 09:56:31;;;;;;;49.77;34.35;;;;;;;13.79;78.31;101575.09;1785514;80;25539;-58
2021/03/30 09:59:00;;;;;;;47.00;33.08;;;;;;;13.79;78.38;101578.64;1785294;80;25761;-58
2021/03/30 10:01:27;;;;;;;53.25;35.08;;;;;;;13.74;77.98;101577.91;1785534;80;25584;-58
2021/03/30 10:03:55;;;;;;;54.55;35.68;;;;;;;13.72;78.24;101576.05;1757148;80;25626;-62
2021/03/30 10:06:21;;;;;;;53.10;34.53;;;;;;;13.77;78.58;101574.06;1756749;80;25296;-57
2021/03/30 10:08:48;;;;;;;50.17;34.90;;;;;;;13.86;78.72;101572.82;1785413;80;25469;-59
2021/03/30 10:11:27;;;;;;;53.85;34.27;;;;;;;13.91;78.65;101571.89;1785619;80;26655;-59
2021/03/30 10:14:16;;;;;;;63.42;40.28;;;;;;;13.94;78.45;101572.66;1785249;80;25580;-58
2021/03/30 10:16:44;;;;;;;58.70;40.48;;;;;;;13.97;77.79;101567.98;1785496;80;25148;-58
2021/03/30 10:19:13;;;;;;;62.80;41.15;;;;;;;13.98;78.29;101573.13;1784450;80;25638;-61
2021/03/30 10:21:42;;;;;;;59.83;40.08;;;;;;;14.03;78.26;101576.32;1784598;80;25585;-56
2021/03/30 10:24:16;;;;;;;62.98;41.05;;;;;;;14.07;77.89;101571.08;1784803;80;25694;-57
2021/03/30 10:27:04;;;;;;;58.15;38.78;;;;;;;14.02;77.48;101576.05;1784719;80;25576;-58
2021/03/30 10:32:18;;;;;;;63.42;48.33;;;;;;;13.93;77.07;101575.95;1832376;76;32884;-57
2021/03/30 10:34:47;;;;;;;54.35;39.05;;;;;;;13.90;76.81;101568.94;1819565;78;25342;-58
2021/03/30 10:37:14;;;;;;;60.98;38.55;;;;;;;13.88;77.06;101571.96;1819228;78;25687;-59
2021/03/30 10:39:44;;;;;;;57.73;39.13;;;;;;;13.87;77.32;101566.81;1819305;78;25419;-58
2021/03/30 10:42:15;;;;;;;52.03;35.23;;;;;;;13.85;77.32;101565.75;1819604;78;25891;-58
2021/03/30 10:44:48;;;;;;;44.53;31.17;;;;;;;13.85;77.39;101564.95;1819319;78;25479;-55
2021/03/30 10:47:24;;;;;;;45.60;29.60;;;;;;;13.83;77.30;101569.33;1818069;78;25581;-59
2021/03/30 10:49:55;;;;;;;39.45;28.32;;;;;;;13.78;76.80;101564.78;1819401;78;25687;-58
2021/03/30 10:52:30;;;;;;;44.53;30.57;;;;;;;13.72;77.22;101565.97;1819392;78;25479;-58
2021/03/30 10:54:57;;;;;;;44.85;33.23;;;;;;;13.69;77.11;101564.41;1819361;78;25536;-61
2021/03/30 11:00:09;;;;;;;53.70;36.83;;;;;;;13.71;77.42;101574.45;1815940;77;34511;-58
2021/03/30 11:02:37;;;;;;;50.58;37.23;;;;;;;13.61;77.26;101565.91;1788193;80;25498;-57
2021/03/30 11:05:07;;;;;;;50.70;37.35;;;;;;;13.56;77.12;101572.80;1788204;80;25998;-59
2021/03/30 11:07:33;;;;;;;;;;;;;;;13.54;77.39;101567.66;1790474;80;25771;-58
2021/03/30 11:10:01;;;;;;;36.58;25.68;;;;;;;13.54;77.21;101571.73;1788075;80;25363;-59
2021/03/30 11:12:29;;;;;;;35.40;25.32;;;;;;;13.52;77.24;101575.84;1788143;80;25555;-57
2021/03/30 11:14:56;;;;;;;30.62;21.45;;;;;;;13.49;77.38;101572.37;1788025;80;25542;-59
2021/03/30 11:17:23;;;;;;;27.40;17.65;;;;;;;13.45;77.21;101568.09;1787821;80;26667;-60
2021/03/30 11:19:50;;;;;;;22.85;15.88;;;;;;;13.40;77.05;101565.43;1787973;80;25517;-56
2021/03/30 11:22:20;;;;;;;24.57;14.73;;;;;;;13.36;76.96;101571.22;1788020;80;25258;-59
2021/03/30 11:24:47;;;;;;;23.77;14.93;;;;;;;13.30;76.75;101573.72;1788179;80;25585;-59
2021/03/30 11:27:17;;;;;;;20.62;13.32;;;;;;;13.24;76.83;101575.72;1788127;80;25626;-60
2021/03/30 11:29:47;;;;;;;17.65;13.60;;;;;;;13.20;76.92;101570.62;1788004;80;25791;-58
2021/03/30 11:34:47;;;;;;;24.82;14.03;;;;;;;13.14;76.90;101571.80;1788225;80;25509;-59
2021/03/30 11:39:40;;;;;;;24.27;14.20;;;;;;;13.08;76.96;101573.23;1788090;80;25520;-58
2021/03/30 11:42:08;;;;;;;17.52;11.90;;;;;;;13.08;77.19;101574.59;1788103;80;26151;-59
2021/03/30 11:44:35;;;;;;;19.57;12.88;;;;;;;13.08;77.02;101565.08;1787883;80;25571;-59